sensor_id;sensor_type;location;lat;lon;timestamp;P1;durP1;ratioP1;P2;durP2;ratioP2
19280;SDS011;9774;52.034;5.342;2022-08-21T00:01:20;2.63;;;1.48;;
19280;SDS011;9774;52.034;5.342;2022-08-21T00:03:49;3.13;;;1.83;;
19280;SDS011;9774;52.034;5.342;2022-08-21T00:06:17;2.17;;;1.55;;
19280;SDS011;9774;52.034;5.342;2022-08-21T00:08:45;2.72;;;1.42;;
19280;SDS011;9774;52.034;5.342;2022-08-21T00:11:14;2.63;;;1.70;;
19280;SDS011;9774;52.034;5.342;2022-08-21T00:13:42;3.00;;;1.80;;
19280;SDS011;9774;52.034;5.342;2022-08-21T00:16:09;2.88;;;1.90;;
19280;SDS011;9774;52.034;5.342;2022-08-21T00:18:38;4.57;;;1.90;;
19280;SDS011;9774;52.034;5.342;2022-08-21T00:21:06;2.60;;;1.60;;
19280;SDS011;9774;52.034;5.342;2022-08-21T00:23:33;2.15;;;1.55;;
19280;SDS011;9774;52.034;5.342;2022-08-21T00:26:01;3.97;;;2.50;;
19280;SDS011;9774;52.034;5.342;2022-08-21T00:28:28;2.92;;;1.60;;
19280;SDS011;9774;52.034;5.342;2022-08-21T00:30:56;3.88;;;2.58;;
19280;SDS011;9774;52.034;5.342;2022-08-21T00:33:24;3.70;;;2.25;;
19280;SDS011;9774;52.034;5.342;2022-08-21T00:35:53;5.18;;;2.05;;
19280;SDS011;9774;52.034;5.342;2022-08-21T00:38:20;3.67;;;2.20;;
19280;SDS011;9774;52.034;5.342;2022-08-21T00:40:49;3.50;;;1.98;;
19280;SDS011;9774;52.034;5.342;2022-08-21T00:43:21;3.38;;;2.05;;
19280;SDS011;9774;52.034;5.342;2022-08-21T00:45:50;3.30;;;2.15;;
19280;SDS011;9774;52.034;5.342;2022-08-21T00:48:18;5.22;;;2.28;;
19280;SDS011;9774;52.034;5.342;2022-08-21T00:50:55;3.08;;;1.73;;
19280;SDS011;9774;52.034;5.342;2022-08-21T00:53:27;3.22;;;1.85;;
19280;SDS011;9774;52.034;5.342;2022-08-21T00:55:56;2.65;;;1.98;;
19280;SDS011;9774;52.034;5.342;2022-08-21T00:58:24;2.53;;;2.10;;
19280;SDS011;9774;52.034;5.342;2022-08-21T01:00:53;4.25;;;2.70;;
19280;SDS011;9774;52.034;5.342;2022-08-21T01:03:22;2.50;;;2.20;;
19280;SDS011;9774;52.034;5.342;2022-08-21T01:05:50;3.05;;;2.17;;
19280;SDS011;9774;52.034;5.342;2022-08-21T01:08:20;3.20;;;2.03;;
19280;SDS011;9774;52.034;5.342;2022-08-21T01:10:49;3.88;;;2.50;;
19280;SDS011;9774;52.034;5.342;2022-08-21T01:13:18;3.22;;;2.40;;
19280;SDS011;9774;52.034;5.342;2022-08-21T01:15:48;3.50;;;2.13;;
19280;SDS011;9774;52.034;5.342;2022-08-21T01:18:18;2.50;;;2.17;;
19280;SDS011;9774;52.034;5.342;2022-08-21T01:21:02;2.58;;;2.20;;
19280;SDS011;9774;52.034;5.342;2022-08-21T01:23:32;4.35;;;2.42;;
19280;SDS011;9774;52.034;5.342;2022-08-21T01:26:00;3.45;;;2.58;;
19280;SDS011;9774;52.034;5.342;2022-08-21T01:28:27;3.45;;;2.33;;
19280;SDS011;9774;52.034;5.342;2022-08-21T01:30:59;4.35;;;2.75;;
19280;SDS011;9774;52.034;5.342;2022-08-21T01:33:28;5.22;;;2.75;;
19280;SDS011;9774;52.034;5.342;2022-08-21T01:35:56;3.10;;;2.80;;
19280;SDS011;9774;52.034;5.342;2022-08-21T01:38:25;3.47;;;2.92;;
19280;SDS011;9774;52.034;5.342;2022-08-21T01:40:53;4.22;;;2.88;;
19280;SDS011;9774;52.034;5.342;2022-08-21T01:43:20;4.07;;;2.50;;
19280;SDS011;9774;52.034;5.342;2022-08-21T01:45:47;5.40;;;2.50;;
19280;SDS011;9774;52.034;5.342;2022-08-21T01:48:15;3.22;;;2.88;;
19280;SDS011;9774;52.034;5.342;2022-08-21T01:50:42;3.60;;;2.70;;
19280;SDS011;9774;52.034;5.342;2022-08-21T01:53:09;16.08;;;2.70;;
19280;SDS011;9774;52.034;5.342;2022-08-21T01:55:38;3.88;;;2.53;;
19280;SDS011;9774;52.034;5.342;2022-08-21T01:58:05;3.00;;;2.45;;
19280;SDS011;9774;52.034;5.342;2022-08-21T02:00:33;5.18;;;2.92;;
19280;SDS011;9774;52.034;5.342;2022-08-21T02:03:00;3.33;;;2.60;;
19280;SDS011;9774;52.034;5.342;2022-08-21T02:05:28;3.78;;;2.88;;
19280;SDS011;9774;52.034;5.342;2022-08-21T02:07:55;3.55;;;2.85;;
19280;SDS011;9774;52.034;5.342;2022-08-21T02:10:23;4.70;;;2.50;;
19280;SDS011;9774;52.034;5.342;2022-08-21T02:12:53;4.05;;;2.90;;
19280;SDS011;9774;52.034;5.342;2022-08-21T02:15:21;3.17;;;2.55;;
19280;SDS011;9774;52.034;5.342;2022-08-21T02:17:50;3.22;;;2.60;;
19280;SDS011;9774;52.034;5.342;2022-08-21T02:20:20;3.97;;;2.90;;
19280;SDS011;9774;52.034;5.342;2022-08-21T02:22:48;3.25;;;2.70;;
19280;SDS011;9774;52.034;5.342;2022-08-21T02:25:16;3.78;;;3.00;;
19280;SDS011;9774;52.034;5.342;2022-08-21T02:27:45;3.63;;;2.88;;
19280;SDS011;9774;52.034;5.342;2022-08-21T02:30:15;3.03;;;2.53;;
19280;SDS011;9774;52.034;5.342;2022-08-21T02:32:43;3.13;;;2.83;;
19280;SDS011;9774;52.034;5.342;2022-08-21T02:35:11;4.18;;;3.28;;
19280;SDS011;9774;52.034;5.342;2022-08-21T02:37:43;3.17;;;2.75;;
19280;SDS011;9774;52.034;5.342;2022-08-21T02:40:12;3.30;;;2.65;;
19280;SDS011;9774;52.034;5.342;2022-08-21T02:42:40;4.60;;;3.30;;
19280;SDS011;9774;52.034;5.342;2022-08-21T02:45:09;3.38;;;2.33;;
19280;SDS011;9774;52.034;5.342;2022-08-21T02:47:38;5.63;;;2.97;;
19280;SDS011;9774;52.034;5.342;2022-08-21T02:50:06;3.25;;;2.65;;
19280;SDS011;9774;52.034;5.342;2022-08-21T02:52:34;3.20;;;2.65;;
19280;SDS011;9774;52.034;5.342;2022-08-21T02:55:02;3.97;;;3.17;;
19280;SDS011;9774;52.034;5.342;2022-08-21T02:57:30;4.35;;;3.10;;
19280;SDS011;9774;52.034;5.342;2022-08-21T02:59:57;5.97;;;2.63;;
19280;SDS011;9774;52.034;5.342;2022-08-21T03:02:25;3.15;;;2.72;;
19280;SDS011;9774;52.034;5.342;2022-08-21T03:04:53;7.57;;;2.67;;
19280;SDS011;9774;52.034;5.342;2022-08-21T03:07:20;7.10;;;2.63;;
19280;SDS011;9774;52.034;5.342;2022-08-21T03:09:48;5.88;;;2.58;;
19280;SDS011;9774;52.034;5.342;2022-08-21T03:12:15;5.50;;;3.28;;
19280;SDS011;9774;52.034;5.342;2022-08-21T03:14:42;4.28;;;3.25;;
19280;SDS011;9774;52.034;5.342;2022-08-21T03:17:09;4.90;;;3.20;;
19280;SDS011;9774;52.034;5.342;2022-08-21T03:19:37;5.22;;;3.08;;
19280;SDS011;9774;52.034;5.342;2022-08-21T03:22:05;2.47;;;2.28;;
19280;SDS011;9774;52.034;5.342;2022-08-21T03:24:33;3.92;;;2.53;;
19280;SDS011;9774;52.034;5.342;2022-08-21T03:27:00;7.65;;;2.97;;
19280;SDS011;9774;52.034;5.342;2022-08-21T03:29:27;4.07;;;2.88;;
19280;SDS011;9774;52.034;5.342;2022-08-21T03:31:54;5.05;;;3.08;;
19280;SDS011;9774;52.034;5.342;2022-08-21T03:34:22;4.53;;;2.92;;
19280;SDS011;9774;52.034;5.342;2022-08-21T03:36:49;5.57;;;2.88;;
19280;SDS011;9774;52.034;5.342;2022-08-21T03:39:18;3.72;;;3.03;;
19280;SDS011;9774;52.034;5.342;2022-08-21T03:41:45;3.50;;;2.63;;
19280;SDS011;9774;52.034;5.342;2022-08-21T03:44:13;4.68;;;2.53;;
19280;SDS011;9774;52.034;5.342;2022-08-21T03:46:40;3.30;;;2.65;;
19280;SDS011;9774;52.034;5.342;2022-08-21T03:49:07;4.80;;;3.13;;
19280;SDS011;9774;52.034;5.342;2022-08-21T03:51:35;3.75;;;2.85;;
19280;SDS011;9774;52.034;5.342;2022-08-21T03:54:02;3.17;;;2.88;;
19280;SDS011;9774;52.034;5.342;2022-08-21T03:56:31;3.45;;;2.78;;
19280;SDS011;9774;52.034;5.342;2022-08-21T03:58:58;2.90;;;2.55;;
19280;SDS011;9774;52.034;5.342;2022-08-21T04:01:27;4.13;;;2.75;;
19280;SDS011;9774;52.034;5.342;2022-08-21T04:03:54;4.70;;;2.45;;
19280;SDS011;9774;52.034;5.342;2022-08-21T04:06:21;3.90;;;2.90;;
19280;SDS011;9774;52.034;5.342;2022-08-21T04:08:48;4.70;;;3.03;;
19280;SDS011;9774;52.034;5.342;2022-08-21T04:11:16;3.22;;;2.60;;
19280;SDS011;9774;52.034;5.342;2022-08-21T04:13:45;5.40;;;3.03;;
19280;SDS011;9774;52.034;5.342;2022-08-21T04:16:13;5.72;;;3.17;;
19280;SDS011;9774;52.034;5.342;2022-08-21T04:18:44;5.88;;;3.53;;
19280;SDS011;9774;52.034;5.342;2022-08-21T04:21:11;5.00;;;2.65;;
19280;SDS011;9774;52.034;5.342;2022-08-21T04:23:39;5.43;;;3.53;;
19280;SDS011;9774;52.034;5.342;2022-08-21T04:26:06;4.78;;;2.65;;
19280;SDS011;9774;52.034;5.342;2022-08-21T04:28:33;3.60;;;2.85;;
19280;SDS011;9774;52.034;5.342;2022-08-21T04:31:02;4.68;;;3.50;;
19280;SDS011;9774;52.034;5.342;2022-08-21T04:33:30;3.97;;;3.03;;
19280;SDS011;9774;52.034;5.342;2022-08-21T04:35:57;6.50;;;3.15;;
19280;SDS011;9774;52.034;5.342;2022-08-21T04:38:24;5.88;;;3.10;;
19280;SDS011;9774;52.034;5.342;2022-08-21T04:40:52;6.15;;;3.28;;
19280;SDS011;9774;52.034;5.342;2022-08-21T04:43:20;6.20;;;3.72;;
19280;SDS011;9774;52.034;5.342;2022-08-21T04:45:48;5.38;;;3.60;;
19280;SDS011;9774;52.034;5.342;2022-08-21T04:48:19;4.75;;;3.17;;
19280;SDS011;9774;52.034;5.342;2022-08-21T04:50:47;4.38;;;3.08;;
19280;SDS011;9774;52.034;5.342;2022-08-21T04:53:22;4.78;;;3.38;;
19280;SDS011;9774;52.034;5.342;2022-08-21T04:55:52;4.53;;;3.30;;
19280;SDS011;9774;52.034;5.342;2022-08-21T04:58:22;3.70;;;3.00;;
19280;SDS011;9774;52.034;5.342;2022-08-21T05:00:52;4.78;;;4.07;;
19280;SDS011;9774;52.034;5.342;2022-08-21T05:03:22;5.95;;;3.28;;
19280;SDS011;9774;52.034;5.342;2022-08-21T05:05:50;8.38;;;3.58;;
19280;SDS011;9774;52.034;5.342;2022-08-21T05:08:19;4.45;;;3.40;;
19280;SDS011;9774;52.034;5.342;2022-08-21T05:10:50;6.43;;;3.50;;
19280;SDS011;9774;52.034;5.342;2022-08-21T05:13:18;6.75;;;3.20;;
19280;SDS011;9774;52.034;5.342;2022-08-21T05:15:46;5.28;;;3.88;;
19280;SDS011;9774;52.034;5.342;2022-08-21T05:18:13;6.25;;;3.05;;
19280;SDS011;9774;52.034;5.342;2022-08-21T05:20:42;5.70;;;4.05;;
19280;SDS011;9774;52.034;5.342;2022-08-21T05:23:11;4.72;;;3.45;;
19280;SDS011;9774;52.034;5.342;2022-08-21T05:25:39;4.97;;;3.45;;
19280;SDS011;9774;52.034;5.342;2022-08-21T05:28:08;4.30;;;3.60;;
19280;SDS011;9774;52.034;5.342;2022-08-21T05:30:37;5.38;;;3.42;;
19280;SDS011;9774;52.034;5.342;2022-08-21T05:33:05;5.55;;;3.70;;
19280;SDS011;9774;52.034;5.342;2022-08-21T05:35:33;3.65;;;3.13;;
19280;SDS011;9774;52.034;5.342;2022-08-21T05:38:02;5.65;;;3.08;;
19280;SDS011;9774;52.034;5.342;2022-08-21T05:40:30;5.03;;;3.53;;
19280;SDS011;9774;52.034;5.342;2022-08-21T05:42:58;5.47;;;3.63;;
19280;SDS011;9774;52.034;5.342;2022-08-21T05:45:27;4.57;;;3.20;;
19280;SDS011;9774;52.034;5.342;2022-08-21T05:47:56;4.07;;;3.33;;
19280;SDS011;9774;52.034;5.342;2022-08-21T05:50:23;4.18;;;3.13;;
19280;SDS011;9774;52.034;5.342;2022-08-21T05:52:54;6.00;;;3.88;;
19280;SDS011;9774;52.034;5.342;2022-08-21T05:55:22;3.83;;;3.28;;
19280;SDS011;9774;52.034;5.342;2022-08-21T05:57:50;4.35;;;3.72;;
19280;SDS011;9774;52.034;5.342;2022-08-21T06:00:17;4.63;;;3.78;;
19280;SDS011;9774;52.034;5.342;2022-08-21T06:02:45;4.43;;;3.13;;
19280;SDS011;9774;52.034;5.342;2022-08-21T06:05:12;5.60;;;3.33;;
19280;SDS011;9774;52.034;5.342;2022-08-21T06:07:40;5.03;;;3.40;;
19280;SDS011;9774;52.034;5.342;2022-08-21T06:10:07;5.95;;;3.83;;
19280;SDS011;9774;52.034;5.342;2022-08-21T06:12:37;4.97;;;3.45;;
19280;SDS011;9774;52.034;5.342;2022-08-21T06:15:04;6.15;;;3.75;;
19280;SDS011;9774;52.034;5.342;2022-08-21T06:17:32;5.47;;;2.67;;
19280;SDS011;9774;52.034;5.342;2022-08-21T06:20:00;5.53;;;3.47;;
19280;SDS011;9774;52.034;5.342;2022-08-21T06:22:28;5.15;;;2.80;;
19280;SDS011;9774;52.034;5.342;2022-08-21T06:24:56;6.65;;;3.55;;
19280;SDS011;9774;52.034;5.342;2022-08-21T06:27:23;7.55;;;3.80;;
19280;SDS011;9774;52.034;5.342;2022-08-21T06:29:52;3.58;;;2.78;;
19280;SDS011;9774;52.034;5.342;2022-08-21T06:32:21;4.60;;;3.10;;
19280;SDS011;9774;52.034;5.342;2022-08-21T06:34:48;4.70;;;2.67;;
19280;SDS011;9774;52.034;5.342;2022-08-21T06:37:16;5.68;;;2.78;;
19280;SDS011;9774;52.034;5.342;2022-08-21T06:39:43;4.85;;;2.60;;
19280;SDS011;9774;52.034;5.342;2022-08-21T06:42:12;5.80;;;2.90;;
19280;SDS011;9774;52.034;5.342;2022-08-21T06:44:40;3.42;;;2.60;;
19280;SDS011;9774;52.034;5.342;2022-08-21T06:47:09;6.85;;;3.35;;
19280;SDS011;9774;52.034;5.342;2022-08-21T06:49:37;5.35;;;2.97;;
19280;SDS011;9774;52.034;5.342;2022-08-21T06:52:08;4.38;;;2.75;;
19280;SDS011;9774;52.034;5.342;2022-08-21T06:54:36;5.80;;;2.67;;
19280;SDS011;9774;52.034;5.342;2022-08-21T06:57:04;4.93;;;2.00;;
19280;SDS011;9774;52.034;5.342;2022-08-21T06:59:31;5.75;;;2.75;;
19280;SDS011;9774;52.034;5.342;2022-08-21T07:01:59;10.65;;;3.25;;
19280;SDS011;9774;52.034;5.342;2022-08-21T07:04:28;5.88;;;2.70;;
19280;SDS011;9774;52.034;5.342;2022-08-21T07:06:55;3.50;;;2.65;;
19280;SDS011;9774;52.034;5.342;2022-08-21T07:09:25;4.75;;;2.55;;
19280;SDS011;9774;52.034;5.342;2022-08-21T07:11:53;3.83;;;2.35;;
19280;SDS011;9774;52.034;5.342;2022-08-21T07:14:21;3.72;;;2.30;;
19280;SDS011;9774;52.034;5.342;2022-08-21T07:16:49;4.60;;;2.67;;
19280;SDS011;9774;52.034;5.342;2022-08-21T07:19:17;7.60;;;3.40;;
19280;SDS011;9774;52.034;5.342;2022-08-21T07:21:46;7.50;;;3.22;;
19280;SDS011;9774;52.034;5.342;2022-08-21T07:24:13;5.10;;;2.42;;
19280;SDS011;9774;52.034;5.342;2022-08-21T07:26:41;6.63;;;2.53;;
19280;SDS011;9774;52.034;5.342;2022-08-21T07:29:08;5.82;;;3.35;;
19280;SDS011;9774;52.034;5.342;2022-08-21T07:31:35;7.88;;;2.42;;
19280;SDS011;9774;52.034;5.342;2022-08-21T07:34:03;7.40;;;2.42;;
19280;SDS011;9774;52.034;5.342;2022-08-21T07:36:30;3.92;;;2.75;;
19280;SDS011;9774;52.034;5.342;2022-08-21T07:38:59;6.20;;;2.50;;
19280;SDS011;9774;52.034;5.342;2022-08-21T07:41:27;7.50;;;3.42;;
19280;SDS011;9774;52.034;5.342;2022-08-21T07:43:55;4.80;;;2.85;;
19280;SDS011;9774;52.034;5.342;2022-08-21T07:46:23;6.03;;;2.05;;
19280;SDS011;9774;52.034;5.342;2022-08-21T07:48:51;5.63;;;2.30;;
19280;SDS011;9774;52.034;5.342;2022-08-21T07:51:19;4.47;;;2.40;;
19280;SDS011;9774;52.034;5.342;2022-08-21T07:53:50;4.68;;;2.33;;
19280;SDS011;9774;52.034;5.342;2022-08-21T07:56:23;6.55;;;2.67;;
19280;SDS011;9774;52.034;5.342;2022-08-21T07:58:50;4.25;;;2.85;;
19280;SDS011;9774;52.034;5.342;2022-08-21T08:01:18;3.90;;;2.38;;
19280;SDS011;9774;52.034;5.342;2022-08-21T08:03:46;5.60;;;2.38;;
19280;SDS011;9774;52.034;5.342;2022-08-21T08:06:13;6.13;;;3.33;;
19280;SDS011;9774;52.034;5.342;2022-08-21T08:08:43;7.97;;;4.18;;
19280;SDS011;9774;52.034;5.342;2022-08-21T08:11:11;4.85;;;2.53;;
19280;SDS011;9774;52.034;5.342;2022-08-21T08:13:42;5.32;;;2.13;;
19280;SDS011;9774;52.034;5.342;2022-08-21T08:16:11;8.98;;;3.85;;
19280;SDS011;9774;52.034;5.342;2022-08-21T08:18:39;7.05;;;3.28;;
19280;SDS011;9774;52.034;5.342;2022-08-21T08:21:07;13.65;;;4.72;;
19280;SDS011;9774;52.034;5.342;2022-08-21T08:23:35;8.27;;;3.05;;
19280;SDS011;9774;52.034;5.342;2022-08-21T08:26:03;4.40;;;2.30;;
19280;SDS011;9774;52.034;5.342;2022-08-21T08:28:31;6.25;;;2.65;;
19280;SDS011;9774;52.034;5.342;2022-08-21T08:31:01;5.53;;;2.78;;
19280;SDS011;9774;52.034;5.342;2022-08-21T08:33:28;5.80;;;2.70;;
19280;SDS011;9774;52.034;5.342;2022-08-21T08:35:56;5.63;;;2.40;;
19280;SDS011;9774;52.034;5.342;2022-08-21T08:38:25;8.65;;;2.38;;
19280;SDS011;9774;52.034;5.342;2022-08-21T08:40:54;5.13;;;1.85;;
19280;SDS011;9774;52.034;5.342;2022-08-21T08:43:27;7.68;;;2.38;;
19280;SDS011;9774;52.034;5.342;2022-08-21T08:45:57;8.75;;;2.25;;
19280;SDS011;9774;52.034;5.342;2022-08-21T08:48:36;5.75;;;2.40;;
19280;SDS011;9774;52.034;5.342;2022-08-21T08:51:12;5.97;;;2.03;;
19280;SDS011;9774;52.034;5.342;2022-08-21T08:53:47;5.70;;;2.70;;
19280;SDS011;9774;52.034;5.342;2022-08-21T08:56:18;4.20;;;2.10;;
19280;SDS011;9774;52.034;5.342;2022-08-21T08:59:02;5.65;;;2.03;;
19280;SDS011;9774;52.034;5.342;2022-08-21T09:01:33;5.10;;;2.33;;
19280;SDS011;9774;52.034;5.342;2022-08-21T09:04:03;4.95;;;1.70;;
19280;SDS011;9774;52.034;5.342;2022-08-21T09:06:36;8.13;;;1.80;;
19280;SDS011;9774;52.034;5.342;2022-08-21T09:09:17;6.10;;;1.83;;
19280;SDS011;9774;52.034;5.342;2022-08-21T09:11:52;2.72;;;2.00;;
19280;SDS011;9774;52.034;5.342;2022-08-21T09:14:26;2.97;;;1.58;;
19280;SDS011;9774;52.034;5.342;2022-08-21T09:17:09;4.03;;;1.73;;
19280;SDS011;9774;52.034;5.342;2022-08-21T09:19:49;6.72;;;2.00;;
19280;SDS011;9774;52.034;5.342;2022-08-21T09:22:28;6.53;;;2.10;;
19280;SDS011;9774;52.034;5.342;2022-08-21T09:25:07;4.18;;;1.67;;
19280;SDS011;9774;52.034;5.342;2022-08-21T09:27:38;3.85;;;1.75;;
19280;SDS011;9774;52.034;5.342;2022-08-21T09:30:07;5.20;;;1.77;;
19280;SDS011;9774;52.034;5.342;2022-08-21T09:32:36;5.55;;;2.08;;
19280;SDS011;9774;52.034;5.342;2022-08-21T09:35:07;4.60;;;1.85;;
19280;SDS011;9774;52.034;5.342;2022-08-21T09:37:49;4.68;;;1.85;;
19280;SDS011;9774;52.034;5.342;2022-08-21T09:40:22;7.28;;;1.83;;
19280;SDS011;9774;52.034;5.342;2022-08-21T09:42:56;3.92;;;1.58;;
19280;SDS011;9774;52.034;5.342;2022-08-21T09:45:25;3.90;;;1.38;;
19280;SDS011;9774;52.034;5.342;2022-08-21T09:47:52;4.35;;;1.50;;
19280;SDS011;9774;52.034;5.342;2022-08-21T09:50:22;2.95;;;1.30;;
19280;SDS011;9774;52.034;5.342;2022-08-21T09:52:52;5.18;;;1.38;;
19280;SDS011;9774;52.034;5.342;2022-08-21T09:55:26;4.88;;;1.65;;
19280;SDS011;9774;52.034;5.342;2022-08-21T09:58:16;6.30;;;1.60;;
19280;SDS011;9774;52.034;5.342;2022-08-21T10:00:45;6.53;;;1.70;;
19280;SDS011;9774;52.034;5.342;2022-08-21T10:03:23;5.03;;;1.65;;
19280;SDS011;9774;52.034;5.342;2022-08-21T10:05:54;3.65;;;1.50;;
19280;SDS011;9774;52.034;5.342;2022-08-21T10:08:24;6.60;;;1.80;;
19280;SDS011;9774;52.034;5.342;2022-08-21T10:10:55;3.72;;;1.38;;
19280;SDS011;9774;52.034;5.342;2022-08-21T10:13:30;4.22;;;1.42;;
19280;SDS011;9774;52.034;5.342;2022-08-21T10:16:11;4.22;;;1.73;;
19280;SDS011;9774;52.034;5.342;2022-08-21T10:18:51;1.90;;;1.20;;
19280;SDS011;9774;52.034;5.342;2022-08-21T10:21:30;2.78;;;1.42;;
19280;SDS011;9774;52.034;5.342;2022-08-21T10:24:03;2.17;;;1.17;;
19280;SDS011;9774;52.034;5.342;2022-08-21T10:26:39;1.17;;;0.90;;
19280;SDS011;9774;52.034;5.342;2022-08-21T10:29:17;3.58;;;1.38;;
19280;SDS011;9774;52.034;5.342;2022-08-21T10:31:53;6.60;;;1.52;;
19280;SDS011;9774;52.034;5.342;2022-08-21T10:34:32;3.42;;;0.85;;
19280;SDS011;9774;52.034;5.342;2022-08-21T10:37:22;8.55;;;1.63;;
19280;SDS011;9774;52.034;5.342;2022-08-21T10:40:02;5.20;;;1.40;;
19280;SDS011;9774;52.034;5.342;2022-08-21T10:42:38;3.45;;;1.15;;
19280;SDS011;9774;52.034;5.342;2022-08-21T10:45:26;3.20;;;1.25;;
19280;SDS011;9774;52.034;5.342;2022-08-21T10:48:05;4.72;;;1.02;;
19280;SDS011;9774;52.034;5.342;2022-08-21T10:50:34;6.50;;;1.38;;
19280;SDS011;9774;52.034;5.342;2022-08-21T10:56:02;2.83;;;1.08;;
19280;SDS011;9774;52.034;5.342;2022-08-21T10:58:37;5.40;;;1.30;;
19280;SDS011;9774;52.034;5.342;2022-08-21T11:01:07;3.65;;;1.40;;
19280;SDS011;9774;52.034;5.342;2022-08-21T11:03:39;2.38;;;1.10;;
19280;SDS011;9774;52.034;5.342;2022-08-21T11:06:11;2.80;;;1.42;;
19280;SDS011;9774;52.034;5.342;2022-08-21T11:08:44;2.40;;;1.30;;
19280;SDS011;9774;52.034;5.342;2022-08-21T11:11:19;5.32;;;1.50;;
19280;SDS011;9774;52.034;5.342;2022-08-21T11:13:51;4.38;;;0.73;;
19280;SDS011;9774;52.034;5.342;2022-08-21T11:16:25;3.58;;;0.80;;
19280;SDS011;9774;52.034;5.342;2022-08-21T11:19:00;2.88;;;0.63;;
19280;SDS011;9774;52.034;5.342;2022-08-21T11:21:35;6.53;;;1.63;;
19280;SDS011;9774;52.034;5.342;2022-08-21T11:24:14;3.30;;;1.35;;
19280;SDS011;9774;52.034;5.342;2022-08-21T11:26:49;2.40;;;0.93;;
19280;SDS011;9774;52.034;5.342;2022-08-21T11:29:23;3.05;;;1.33;;
19280;SDS011;9774;52.034;5.342;2022-08-21T11:31:56;3.28;;;1.30;;
19280;SDS011;9774;52.034;5.342;2022-08-21T11:34:38;2.92;;;1.10;;
19280;SDS011;9774;52.034;5.342;2022-08-21T11:37:15;2.53;;;1.10;;
19280;SDS011;9774;52.034;5.342;2022-08-21T11:39:52;3.72;;;0.90;;
19280;SDS011;9774;52.034;5.342;2022-08-21T11:42:26;3.50;;;0.93;;
19280;SDS011;9774;52.034;5.342;2022-08-21T11:45:03;3.20;;;1.00;;
19280;SDS011;9774;52.034;5.342;2022-08-21T11:47:48;1.90;;;1.08;;
19280;SDS011;9774;52.034;5.342;2022-08-21T11:50:23;2.40;;;1.20;;
19280;SDS011;9774;52.034;5.342;2022-08-21T11:52:55;2.17;;;1.45;;
19280;SDS011;9774;52.034;5.342;2022-08-21T11:55:29;2.08;;;1.05;;
19280;SDS011;9774;52.034;5.342;2022-08-21T11:58:01;2.30;;;1.02;;
19280;SDS011;9774;52.034;5.342;2022-08-21T12:00:32;2.65;;;1.10;;
19280;SDS011;9774;52.034;5.342;2022-08-21T12:03:06;1.30;;;0.80;;
19280;SDS011;9774;52.034;5.342;2022-08-21T12:05:38;4.18;;;1.50;;
19280;SDS011;9774;52.034;5.342;2022-08-21T12:08:10;2.83;;;1.35;;
19280;SDS011;9774;52.034;5.342;2022-08-21T12:10:42;4.13;;;0.93;;
19280;SDS011;9774;52.034;5.342;2022-08-21T12:13:26;1.50;;;1.05;;
19280;SDS011;9774;52.034;5.342;2022-08-21T12:16:04;1.90;;;1.00;;
19280;SDS011;9774;52.034;5.342;2022-08-21T12:18:33;4.13;;;0.90;;
19280;SDS011;9774;52.034;5.342;2022-08-21T12:21:05;1.73;;;0.85;;
19280;SDS011;9774;52.034;5.342;2022-08-21T12:23:48;2.22;;;0.77;;
19280;SDS011;9774;52.034;5.342;2022-08-21T12:26:28;2.00;;;1.00;;
19280;SDS011;9774;52.034;5.342;2022-08-21T12:29:11;2.85;;;0.90;;
19280;SDS011;9774;52.034;5.342;2022-08-21T12:31:49;1.35;;;0.70;;
19280;SDS011;9774;52.034;5.342;2022-08-21T12:34:23;2.20;;;1.00;;
19280;SDS011;9774;52.034;5.342;2022-08-21T12:36:57;1.77;;;1.00;;
19280;SDS011;9774;52.034;5.342;2022-08-21T12:39:27;7.75;;;1.58;;
19280;SDS011;9774;52.034;5.342;2022-08-21T12:42:00;4.63;;;1.15;;
19280;SDS011;9774;52.034;5.342;2022-08-21T12:44:34;7.13;;;0.80;;
19280;SDS011;9774;52.034;5.342;2022-08-21T12:47:11;1.92;;;0.77;;
19280;SDS011;9774;52.034;5.342;2022-08-21T12:49:43;2.95;;;1.00;;
19280;SDS011;9774;52.034;5.342;2022-08-21T12:52:20;3.08;;;0.85;;
19280;SDS011;9774;52.034;5.342;2022-08-21T12:54:50;1.98;;;0.77;;
19280;SDS011;9774;52.034;5.342;2022-08-21T12:57:20;2.10;;;1.10;;
19280;SDS011;9774;52.034;5.342;2022-08-21T12:59:53;1.42;;;0.75;;
19280;SDS011;9774;52.034;5.342;2022-08-21T13:02:24;1.65;;;0.73;;
19280;SDS011;9774;52.034;5.342;2022-08-21T13:04:55;2.45;;;0.70;;
19280;SDS011;9774;52.034;5.342;2022-08-21T13:07:25;3.08;;;0.98;;
19280;SDS011;9774;52.034;5.342;2022-08-21T13:09:57;1.48;;;0.85;;
19280;SDS011;9774;52.034;5.342;2022-08-21T13:12:27;2.47;;;0.90;;
19280;SDS011;9774;52.034;5.342;2022-08-21T13:14:56;3.05;;;0.95;;
19280;SDS011;9774;52.034;5.342;2022-08-21T13:17:25;4.80;;;1.05;;
19280;SDS011;9774;52.034;5.342;2022-08-21T13:19:57;3.08;;;1.00;;
19280;SDS011;9774;52.034;5.342;2022-08-21T13:22:26;1.70;;;0.93;;
19280;SDS011;9774;52.034;5.342;2022-08-21T13:24:55;2.05;;;0.70;;
19280;SDS011;9774;52.034;5.342;2022-08-21T13:27:27;1.45;;;0.57;;
19280;SDS011;9774;52.034;5.342;2022-08-21T13:32:48;3.95;;;1.13;;
19280;SDS011;9774;52.034;5.342;2022-08-21T13:35:17;1.75;;;0.60;;
19280;SDS011;9774;52.034;5.342;2022-08-21T13:37:47;2.60;;;0.75;;
19280;SDS011;9774;52.034;5.342;2022-08-21T13:40:18;1.92;;;0.70;;
19280;SDS011;9774;52.034;5.342;2022-08-21T13:42:51;1.15;;;0.70;;
19280;SDS011;9774;52.034;5.342;2022-08-21T13:45:22;5.20;;;0.90;;
19280;SDS011;9774;52.034;5.342;2022-08-21T13:47:51;2.33;;;0.80;;
19280;SDS011;9774;52.034;5.342;2022-08-21T13:50:20;2.97;;;0.50;;
19280;SDS011;9774;52.034;5.342;2022-08-21T13:52:54;2.78;;;1.08;;
19280;SDS011;9774;52.034;5.342;2022-08-21T13:55:25;4.65;;;1.17;;
19280;SDS011;9774;52.034;5.342;2022-08-21T13:58:03;2.72;;;0.80;;
19280;SDS011;9774;52.034;5.342;2022-08-21T14:00:32;0.98;;;0.75;;
19280;SDS011;9774;52.034;5.342;2022-08-21T14:03:04;3.50;;;0.93;;
19280;SDS011;9774;52.034;5.342;2022-08-21T14:05:34;4.05;;;1.25;;
19280;SDS011;9774;52.034;5.342;2022-08-21T14:08:05;2.53;;;0.73;;
19280;SDS011;9774;52.034;5.342;2022-08-21T14:10:36;3.20;;;1.23;;
19280;SDS011;9774;52.034;5.342;2022-08-21T14:13:23;2.97;;;0.90;;
19280;SDS011;9774;52.034;5.342;2022-08-21T14:15:59;2.78;;;0.90;;
19280;SDS011;9774;52.034;5.342;2022-08-21T14:18:28;3.00;;;1.48;;
19280;SDS011;9774;52.034;5.342;2022-08-21T14:23:58;2.42;;;0.80;;
19280;SDS011;9774;52.034;5.342;2022-08-21T14:26:28;1.67;;;1.05;;
19280;SDS011;9774;52.034;5.342;2022-08-21T14:28:59;2.15;;;0.90;;
19280;SDS011;9774;52.034;5.342;2022-08-21T14:31:28;2.08;;;0.70;;
19280;SDS011;9774;52.034;5.342;2022-08-21T14:33:57;2.03;;;1.00;;
19280;SDS011;9774;52.034;5.342;2022-08-21T14:36:25;4.40;;;0.73;;
19280;SDS011;9774;52.034;5.342;2022-08-21T14:38:52;4.40;;;0.80;;
19280;SDS011;9774;52.034;5.342;2022-08-21T14:41:22;1.25;;;0.65;;
19280;SDS011;9774;52.034;5.342;2022-08-21T14:43:52;3.28;;;1.08;;
19280;SDS011;9774;52.034;5.342;2022-08-21T14:46:23;2.10;;;1.00;;
19280;SDS011;9774;52.034;5.342;2022-08-21T14:48:53;2.92;;;0.98;;
19280;SDS011;9774;52.034;5.342;2022-08-21T14:51:21;4.03;;;0.70;;
19280;SDS011;9774;52.034;5.342;2022-08-21T14:53:48;3.95;;;0.90;;
19280;SDS011;9774;52.034;5.342;2022-08-21T14:56:16;1.88;;;0.98;;
19280;SDS011;9774;52.034;5.342;2022-08-21T14:58:44;1.60;;;0.57;;
19280;SDS011;9774;52.034;5.342;2022-08-21T15:01:15;4.32;;;0.95;;
19280;SDS011;9774;52.034;5.342;2022-08-21T15:03:45;1.70;;;0.73;;
19280;SDS011;9774;52.034;5.342;2022-08-21T15:06:13;4.45;;;1.20;;
19280;SDS011;9774;52.034;5.342;2022-08-21T15:08:43;3.97;;;0.88;;
19280;SDS011;9774;52.034;5.342;2022-08-21T15:11:11;3.65;;;1.50;;
19280;SDS011;9774;52.034;5.342;2022-08-21T15:13:43;3.05;;;1.02;;
19280;SDS011;9774;52.034;5.342;2022-08-21T15:16:10;3.15;;;1.30;;
19280;SDS011;9774;52.034;5.342;2022-08-21T15:18:39;1.83;;;0.95;;
19280;SDS011;9774;52.034;5.342;2022-08-21T15:21:09;2.55;;;1.02;;
19280;SDS011;9774;52.034;5.342;2022-08-21T15:23:36;3.40;;;0.80;;
19280;SDS011;9774;52.034;5.342;2022-08-21T15:26:04;1.90;;;0.95;;
19280;SDS011;9774;52.034;5.342;2022-08-21T15:28:31;3.80;;;1.35;;